createdAt,value
2022-12-31T00:01:10.177Z,0.65
2022-12-31T00:03:37.102Z,0.63
2022-12-31T00:06:26.174Z,0.70
2022-12-31T00:08:55.498Z,0.80
2022-12-31T00:11:23.437Z,0.70
2022-12-31T00:13:50.519Z,0.80
2022-12-31T00:16:22.701Z,0.60
2022-12-31T00:18:53.492Z,0.60
2022-12-31T00:21:21.579Z,0.60
2022-12-31T00:23:48.633Z,0.80
2022-12-31T00:26:18.074Z,0.60
2022-12-31T00:28:45.499Z,0.77
2022-12-31T00:31:18.860Z,0.65
2022-12-31T00:33:46.150Z,0.95
2022-12-31T00:36:15.354Z,0.80
2022-12-31T00:38:44.264Z,0.70
2022-12-31T00:41:11.552Z,0.73
2022-12-31T00:43:38.213Z,3.03
2022-12-31T00:46:06.125Z,0.63
2022-12-31T00:48:33.480Z,0.60
2022-12-31T00:51:00.908Z,0.60
2022-12-31T00:53:28.546Z,0.60
2022-12-31T00:56:06.224Z,0.85
2022-12-31T00:58:33.487Z,0.52
2022-12-31T01:01:08.993Z,0.45
2022-12-31T01:03:35.642Z,0.70
2022-12-31T01:06:02.251Z,0.80
2022-12-31T01:08:28.657Z,0.60
2022-12-31T01:11:13.437Z,1.50
2022-12-31T01:13:39.911Z,0.55
2022-12-31T01:16:11.308Z,0.73
2022-12-31T01:18:38.392Z,0.60
2022-12-31T01:21:07.504Z,1.17
2022-12-31T01:23:34.070Z,0.50
2022-12-31T01:26:02.094Z,2.15
2022-12-31T01:28:29.796Z,2.90
2022-12-31T01:30:57.302Z,0.80
2022-12-31T01:33:23.965Z,1.88
2022-12-31T01:35:51.859Z,0.70
2022-12-31T01:38:18.268Z,0.60
2022-12-31T01:40:44.758Z,0.77
2022-12-31T01:43:19.727Z,0.82
2022-12-31T01:45:49.364Z,0.73
2022-12-31T01:48:22.201Z,0.80
2022-12-31T01:50:49.757Z,0.98
2022-12-31T01:53:18.130Z,0.50
2022-12-31T01:55:57.925Z,0.60
2022-12-31T01:58:28.930Z,0.63
2022-12-31T02:00:58.530Z,0.70
2022-12-31T02:03:27.239Z,0.82
2022-12-31T02:06:03.307Z,0.60
2022-12-31T02:08:30.091Z,0.77
2022-12-31T02:10:56.613Z,0.70
2022-12-31T02:13:23.228Z,0.60
2022-12-31T02:16:10.301Z,0.90
2022-12-31T02:18:57.267Z,0.70
2022-12-31T02:21:58.017Z,0.57
2022-12-31T02:24:57.402Z,0.60
2022-12-31T02:27:39.029Z,0.60
2022-12-31T02:30:16.836Z,1.77
2022-12-31T02:33:03.024Z,1.25
2022-12-31T02:35:50.773Z,0.60
2022-12-31T02:38:44.678Z,0.65
2022-12-31T02:41:35.705Z,0.68
2022-12-31T02:44:20.208Z,0.60
2022-12-31T02:46:57.055Z,1.00
2022-12-31T02:49:47.193Z,0.60
2022-12-31T02:52:51.224Z,1.02
2022-12-31T02:55:35.644Z,1.45
2022-12-31T03:01:55.842Z,0.60
2022-12-31T03:04:32.761Z,0.70
2022-12-31T03:07:07.861Z,0.52
2022-12-31T03:09:35.701Z,0.50
2022-12-31T03:12:22.983Z,0.60
2022-12-31T03:14:49.746Z,1.17
2022-12-31T03:17:16.224Z,0.60
2022-12-31T03:20:01.332Z,1.00
2022-12-31T03:22:28.196Z,0.57
2022-12-31T03:25:28.325Z,0.68
2022-12-31T03:27:55.746Z,0.70
2022-12-31T03:30:23.649Z,0.57
2022-12-31T03:32:50.673Z,0.60
2022-12-31T03:35:20.253Z,0.57
2022-12-31T03:37:48.209Z,0.55
2022-12-31T03:40:15.728Z,0.60
2022-12-31T03:42:42.414Z,0.68
2022-12-31T03:45:10.137Z,0.63
2022-12-31T03:47:36.648Z,0.70
2022-12-31T03:50:05.327Z,0.60
2022-12-31T03:52:31.761Z,0.50
2022-12-31T03:54:58.346Z,0.80
2022-12-31T03:57:25.229Z,1.67
2022-12-31T03:59:51.684Z,0.60
2022-12-31T04:02:23.290Z,0.70
2022-12-31T04:04:54.672Z,0.60
2022-12-31T04:07:21.135Z,0.50
2022-12-31T04:09:47.574Z,0.70
2022-12-31T04:12:14.013Z,0.50
2022-12-31T04:14:40.708Z,0.57
2022-12-31T04:17:07.342Z,0.65
2022-12-31T04:19:33.785Z,0.60
2022-12-31T04:22:00.203Z,0.80
2022-12-31T04:24:26.676Z,0.60
2022-12-31T04:26:53.176Z,0.95
2022-12-31T04:29:19.699Z,0.50
2022-12-31T04:31:46.166Z,0.50
2022-12-31T04:34:12.661Z,0.50
2022-12-31T04:36:39.125Z,0.50
2022-12-31T04:39:05.599Z,0.98
2022-12-31T04:41:32.057Z,1.48
2022-12-31T04:43:59.353Z,0.50
2022-12-31T04:46:31.510Z,0.60
2022-12-31T04:48:58.669Z,0.60
2022-12-31T04:51:27.315Z,0.50
2022-12-31T04:53:54.621Z,0.90
2022-12-31T04:56:21.679Z,0.43
2022-12-31T04:58:48.174Z,0.65
2022-12-31T05:01:15.455Z,0.60
2022-12-31T05:03:42.130Z,0.50
2022-12-31T05:06:13.523Z,1.00
2022-12-31T05:08:40.144Z,0.60
2022-12-31T05:11:06.601Z,1.20
2022-12-31T05:13:33.863Z,0.60
2022-12-31T05:16:01.806Z,0.50
2022-12-31T05:18:28.872Z,0.60
2022-12-31T05:20:55.420Z,0.82
2022-12-31T05:23:23.775Z,0.80
2022-12-31T05:25:50.879Z,0.70
2022-12-31T05:28:17.788Z,1.85
2022-12-31T05:30:47.810Z,0.57
2022-12-31T05:33:14.274Z,0.50
2022-12-31T05:35:40.769Z,0.60
2022-12-31T05:38:07.364Z,0.60
2022-12-31T05:40:33.824Z,0.65
2022-12-31T05:43:00.245Z,0.70
2022-12-31T05:45:30.712Z,1.17
2022-12-31T05:47:58.057Z,0.43
2022-12-31T05:50:24.873Z,0.60
2022-12-31T05:52:55.450Z,0.70
2022-12-31T05:55:22.004Z,0.70
2022-12-31T05:57:48.493Z,0.50
2022-12-31T06:00:15.400Z,1.10
2022-12-31T06:02:42.032Z,0.57
2022-12-31T06:05:09.169Z,0.63
2022-12-31T06:07:35.633Z,1.02
2022-12-31T06:10:04.753Z,0.60
2022-12-31T06:12:31.327Z,0.60
2022-12-31T06:14:57.762Z,0.60
2022-12-31T06:17:24.567Z,1.05
2022-12-31T06:19:50.995Z,0.50
2022-12-31T06:22:17.510Z,0.43
2022-12-31T06:24:44.003Z,2.40
2022-12-31T06:27:10.464Z,2.10
2022-12-31T06:29:36.999Z,0.75
2022-12-31T06:32:03.849Z,0.70
2022-12-31T06:34:30.544Z,1.15
2022-12-31T06:36:57.449Z,0.57
2022-12-31T06:39:23.872Z,0.73
2022-12-31T06:41:50.316Z,0.90
2022-12-31T06:44:16.744Z,0.80
2022-12-31T06:46:43.254Z,2.40
2022-12-31T06:49:09.814Z,0.75
2022-12-31T06:51:36.263Z,0.57
2022-12-31T06:54:02.734Z,0.57
2022-12-31T06:56:34.509Z,0.50
2022-12-31T06:59:02.138Z,0.70
2022-12-31T07:01:37.641Z,0.52
2022-12-31T07:04:25.853Z,0.70
2022-12-31T07:06:54.601Z,0.85
2022-12-31T07:09:40.372Z,0.73
2022-12-31T07:12:20.505Z,0.60
2022-12-31T07:14:58.448Z,0.60
2022-12-31T07:17:57.502Z,0.90
2022-12-31T07:20:24.349Z,0.57
2022-12-31T07:22:51.003Z,0.50
2022-12-31T07:25:18.973Z,0.60
2022-12-31T07:28:03.610Z,0.95
2022-12-31T07:31:00.224Z,0.60
2022-12-31T07:33:46.337Z,0.60
2022-12-31T07:36:36.562Z,1.70
2022-12-31T07:39:11.154Z,0.80
2022-12-31T07:41:50.495Z,0.60
2022-12-31T07:44:39.052Z,1.55
2022-12-31T07:47:24.186Z,0.60
2022-12-31T07:49:51.175Z,0.60
2022-12-31T07:52:18.249Z,0.80
2022-12-31T07:54:44.817Z,0.80
2022-12-31T07:57:16.690Z,0.68
2022-12-31T07:59:55.700Z,0.70
2022-12-31T08:02:33.093Z,0.82
2022-12-31T08:05:15.210Z,0.50
2022-12-31T08:07:55.050Z,0.60
2022-12-31T08:10:36.004Z,1.05
2022-12-31T08:13:07.654Z,0.55
2022-12-31T08:15:34.597Z,0.88
2022-12-31T08:18:01.237Z,1.25
2022-12-31T08:20:31.192Z,0.50
2022-12-31T08:23:08.815Z,1.20
2022-12-31T08:25:59.961Z,1.75
2022-12-31T08:28:35.564Z,0.98
2022-12-31T08:31:09.037Z,1.15
2022-12-31T08:34:05.359Z,0.57
2022-12-31T08:36:52.134Z,0.95
2022-12-31T08:39:45.324Z,0.90
2022-12-31T08:42:25.433Z,0.82
2022-12-31T08:45:10.780Z,0.70
2022-12-31T08:48:00.356Z,0.60
2022-12-31T08:50:27.959Z,1.15
2022-12-31T08:52:54.834Z,0.85
2022-12-31T08:55:21.991Z,0.90
2022-12-31T08:58:08.268Z,1.00
2022-12-31T09:00:36.399Z,0.57
2022-12-31T09:03:11.671Z,1.00
2022-12-31T09:05:54.930Z,0.70
2022-12-31T09:08:45.974Z,0.63
2022-12-31T09:11:22.798Z,0.80
2022-12-31T09:14:27.165Z,0.60
2022-12-31T09:17:12.410Z,1.75
2022-12-31T09:19:38.885Z,1.13
2022-12-31T09:22:05.500Z,0.80
2022-12-31T09:24:32.288Z,1.08
2022-12-31T09:27:30.152Z,1.10
2022-12-31T09:30:10.688Z,0.70
2022-12-31T09:33:01.394Z,0.80
2022-12-31T09:35:41.617Z,0.82
2022-12-31T09:38:23.827Z,0.70
2022-12-31T09:41:14.433Z,0.60
2022-12-31T09:44:12.940Z,1.77
2022-12-31T09:47:11.119Z,0.60
2022-12-31T09:49:43.339Z,0.60
2022-12-31T09:52:30.483Z,0.77
2022-12-31T09:55:12.240Z,0.50
2022-12-31T09:58:02.147Z,0.88
2022-12-31T10:00:39.028Z,0.60
2022-12-31T10:03:36.401Z,0.57
2022-12-31T10:06:24.357Z,0.60
2022-12-31T10:09:29.940Z,0.40
2022-12-31T10:12:06.370Z,1.05
2022-12-31T10:15:01.310Z,0.95
2022-12-31T10:17:52.763Z,0.43
2022-12-31T10:20:56.922Z,2.15
2022-12-31T10:23:43.864Z,0.43
2022-12-31T10:26:52.919Z,0.47
2022-12-31T10:29:47.044Z,1.10
2022-12-31T10:32:16.209Z,0.60
2022-12-31T10:35:15.102Z,0.50
2022-12-31T10:37:53.610Z,0.65
2022-12-31T10:40:29.590Z,0.55
2022-12-31T10:43:33.594Z,0.60
2022-12-31T10:46:32.376Z,0.60
2022-12-31T10:49:22.083Z,0.73
2022-12-31T10:52:24.914Z,0.60
2022-12-31T10:55:24.820Z,0.40
2022-12-31T10:58:06.567Z,1.20
2022-12-31T11:00:56.592Z,1.75
2022-12-31T11:03:41.788Z,0.40
2022-12-31T11:06:29.674Z,0.80
2022-12-31T11:09:23.265Z,0.40
2022-12-31T11:12:15.963Z,0.38
2022-12-31T11:14:48.039Z,2.67
2022-12-31T11:17:40.710Z,0.40
2022-12-31T11:20:23.685Z,0.90
2022-12-31T11:23:10.327Z,0.47
2022-12-31T11:25:59.616Z,0.82
2022-12-31T11:28:52.475Z,0.40
2022-12-31T11:31:43.237Z,0.30
2022-12-31T11:34:25.001Z,0.30
2022-12-31T11:37:05.635Z,0.52
2022-12-31T11:42:57.339Z,0.57
2022-12-31T11:45:56.216Z,0.47
2022-12-31T11:48:32.552Z,0.50
2022-12-31T11:51:21.413Z,0.43
2022-12-31T11:54:25.095Z,0.40
2022-12-31T11:57:08.219Z,0.50
2022-12-31T11:59:34.717Z,0.38
2022-12-31T12:02:12.409Z,0.60
2022-12-31T12:04:38.864Z,0.40
2022-12-31T12:07:13.473Z,0.35
2022-12-31T12:09:41.310Z,0.30
2022-12-31T12:12:07.908Z,0.40
2022-12-31T12:14:37.811Z,0.35
2022-12-31T12:17:09.189Z,0.55
2022-12-31T12:19:41.604Z,0.50
2022-12-31T12:22:12.548Z,0.47
2022-12-31T12:24:39.271Z,0.50
2022-12-31T12:27:21.439Z,0.35
2022-12-31T12:29:48.690Z,0.50
2022-12-31T12:32:18.049Z,0.40
2022-12-31T12:34:49.570Z,0.68
2022-12-31T12:37:32.227Z,0.50
2022-12-31T12:40:05.208Z,0.45
2022-12-31T12:42:32.260Z,0.30
2022-12-31T12:45:14.582Z,0.40
2022-12-31T12:47:43.014Z,0.38
2022-12-31T12:50:19.002Z,0.40
2022-12-31T12:55:46.771Z,0.60
2022-12-31T12:58:18.822Z,0.40
2022-12-31T13:01:18.283Z,0.35
2022-12-31T13:04:32.340Z,0.30
2022-12-31T13:07:14.211Z,0.40
2022-12-31T13:10:08.314Z,0.40
2022-12-31T13:13:22.795Z,0.50
2022-12-31T13:15:47.395Z,0.50
2022-12-31T13:18:32.742Z,1.40
2022-12-31T13:21:39.587Z,0.30
2022-12-31T13:24:36.223Z,0.50
2022-12-31T13:27:26.837Z,0.50
2022-12-31T13:29:56.416Z,0.35
2022-12-31T13:32:37.841Z,0.38
2022-12-31T13:35:21.525Z,0.50
2022-12-31T13:37:48.496Z,0.50
2022-12-31T13:40:45.157Z,0.60
2022-12-31T13:43:36.627Z,0.60
2022-12-31T13:46:13.956Z,0.95
2022-12-31T13:48:48.589Z,0.63
2022-12-31T13:51:47.108Z,5.10
2022-12-31T13:54:21.447Z,1.60
2022-12-31T13:56:50.592Z,0.80
2022-12-31T13:59:31.682Z,0.90
2022-12-31T14:02:08.694Z,1.00
2022-12-31T14:04:45.009Z,1.00
2022-12-31T14:07:19.032Z,1.00
2022-12-31T14:09:46.685Z,1.02
2022-12-31T14:12:31.343Z,1.10
2022-12-31T14:15:24.321Z,1.60
2022-12-31T14:17:57.243Z,0.90
2022-12-31T14:20:53.537Z,1.00
2022-12-31T14:23:34.174Z,1.10
2022-12-31T14:26:22.629Z,1.40
2022-12-31T14:29:12.075Z,1.25
2022-12-31T14:31:53.765Z,1.67
2022-12-31T14:34:26.311Z,1.20
2022-12-31T14:36:58.955Z,1.00
2022-12-31T14:39:43.899Z,1.33
2022-12-31T14:42:38.957Z,1.05
2022-12-31T14:45:14.374Z,1.10
2022-12-31T14:47:59.908Z,1.27
2022-12-31T14:50:29.532Z,1.38
2022-12-31T14:53:08.499Z,1.00
2022-12-31T14:55:37.677Z,1.08
2022-12-31T14:58:29.288Z,1.60
2022-12-31T15:01:02.095Z,1.10
2022-12-31T15:03:31.509Z,1.85
2022-12-31T15:06:23.103Z,1.10
2022-12-31T15:09:08.788Z,1.40
2022-12-31T15:11:41.554Z,0.98
2022-12-31T15:14:47.309Z,2.67
2022-12-31T15:17:48.883Z,1.20
2022-12-31T15:20:38.664Z,1.13
2022-12-31T15:23:33.363Z,2.58
2022-12-31T15:26:01.754Z,1.38
2022-12-31T15:28:34.409Z,1.42
2022-12-31T15:31:20.867Z,1.45
2022-12-31T15:34:02.602Z,1.70
2022-12-31T15:36:32.345Z,1.30
2022-12-31T15:39:11.166Z,1.20
2022-12-31T15:41:42.898Z,1.27
2022-12-31T15:44:25.992Z,1.20
2022-12-31T15:47:24.397Z,1.40
2022-12-31T15:49:53.696Z,1.95
2022-12-31T15:52:26.275Z,1.40
2022-12-31T15:54:56.273Z,2.00
2022-12-31T15:57:41.497Z,1.85
2022-12-31T16:00:17.064Z,1.52
2022-12-31T16:02:45.264Z,2.58
2022-12-31T16:05:24.408Z,2.25
2022-12-31T16:07:59.405Z,1.42
2022-12-31T16:10:32.123Z,1.23
2022-12-31T16:12:59.768Z,1.38
2022-12-31T16:15:31.528Z,1.90
2022-12-31T16:18:04.628Z,1.58
2022-12-31T16:20:33.940Z,1.55
2022-12-31T16:23:03.104Z,1.73
2022-12-31T16:25:32.870Z,1.98
2022-12-31T16:28:02.490Z,1.80
2022-12-31T16:30:31.129Z,5.88
2022-12-31T16:33:03.706Z,6.60
2022-12-31T16:35:36.371Z,1.90
2022-12-31T16:38:19.549Z,1.85
2022-12-31T16:41:01.180Z,2.25
2022-12-31T16:43:29.009Z,1.70
2022-12-31T16:46:10.129Z,1.40
2022-12-31T16:48:37.586Z,2.15
2022-12-31T16:51:05.176Z,2.03
2022-12-31T16:53:36.421Z,2.95
2022-12-31T16:56:09.004Z,3.85
2022-12-31T16:58:40.767Z,5.10
2022-12-31T17:01:27.380Z,4.68
2022-12-31T17:04:00.140Z,4.78
2022-12-31T17:06:28.418Z,2.33
2022-12-31T17:09:00.884Z,1.90
2022-12-31T17:11:34.325Z,3.05
2022-12-31T17:14:07.493Z,2.35
2022-12-31T17:17:01.666Z,2.17
2022-12-31T17:19:35.162Z,1.60
2022-12-31T17:22:04.277Z,1.90
2022-12-31T17:24:31.549Z,2.30
2022-12-31T17:27:05.304Z,2.20
2022-12-31T17:29:32.359Z,3.35
2022-12-31T17:32:08.001Z,2.72
2022-12-31T17:34:47.277Z,2.58
2022-12-31T17:37:18.694Z,2.30
2022-12-31T17:39:53.517Z,2.00
2022-12-31T17:42:36.337Z,1.88
2022-12-31T17:45:08.103Z,1.60
2022-12-31T17:47:40.392Z,1.98
2022-12-31T17:50:19.086Z,2.00
2022-12-31T17:52:46.305Z,2.13
2022-12-31T17:55:12.848Z,1.63
2022-12-31T17:57:47.346Z,1.80
2022-12-31T18:00:23.244Z,1.95
2022-12-31T18:02:49.857Z,1.45
2022-12-31T18:05:22.302Z,1.95
2022-12-31T18:07:48.843Z,2.75
2022-12-31T18:10:17.083Z,2.50
2022-12-31T18:12:44.836Z,2.20
2022-12-31T18:15:24.765Z,2.17
2022-12-31T18:17:51.576Z,2.55
2022-12-31T18:20:18.603Z,2.47
2022-12-31T18:22:45.712Z,2.40
2022-12-31T18:25:24.336Z,2.13
2022-12-31T18:27:52.456Z,1.98
2022-12-31T18:30:18.998Z,4.13
2022-12-31T18:32:46.534Z,2.03
2022-12-31T18:35:58.106Z,3.15
2022-12-31T18:38:11.737Z,2.28
2022-12-31T18:40:42.621Z,4.07
2022-12-31T18:43:15.968Z,2.20
2022-12-31T18:45:42.682Z,2.65
2022-12-31T18:48:09.347Z,6.97
2022-12-31T18:50:36.148Z,3.40
2022-12-31T18:53:02.733Z,2.35
2022-12-31T18:55:45.843Z,1.85
2022-12-31T18:58:12.389Z,2.20
2022-12-31T19:00:39.435Z,2.63
2022-12-31T19:03:06.093Z,2.92
2022-12-31T19:05:34.634Z,2.25
2022-12-31T19:08:01.413Z,2.08
2022-12-31T19:10:28.246Z,1.98
2022-12-31T19:12:54.920Z,2.10
2022-12-31T19:15:26.529Z,3.55
2022-12-31T19:17:53.157Z,4.10
2022-12-31T19:20:19.701Z,4.75
2022-12-31T19:22:46.336Z,2.22
2022-12-31T19:25:27.737Z,2.45
2022-12-31T19:27:54.679Z,2.45
2022-12-31T19:30:27.057Z,6.20
2022-12-31T19:32:53.870Z,3.15
2022-12-31T19:35:21.368Z,29.80
2022-12-31T19:37:49.824Z,20.52
2022-12-31T19:40:19.444Z,17.75
2022-12-31T19:42:46.181Z,4.85
2022-12-31T19:45:15.094Z,3.70
2022-12-31T19:47:42.144Z,8.90
2022-12-31T19:50:12.744Z,5.53
2022-12-31T19:52:39.486Z,6.47
2022-12-31T19:55:06.347Z,4.78
2022-12-31T19:57:32.931Z,2.63
2022-12-31T19:59:59.410Z,8.70
2022-12-31T20:02:26.138Z,12.25
2022-12-31T20:04:52.704Z,7.10
2022-12-31T20:07:25.276Z,2.42
2022-12-31T20:09:53.558Z,1.73
2022-12-31T20:12:20.040Z,1.35
2022-12-31T20:14:46.536Z,2.58
2022-12-31T20:17:13.161Z,1.45
2022-12-31T20:19:39.693Z,0.73
2022-12-31T20:22:06.614Z,0.70
2022-12-31T20:24:33.512Z,1.10
2022-12-31T20:27:00.106Z,1.35
2022-12-31T20:29:30.156Z,1.10
2022-12-31T20:31:57.216Z,1.63
2022-12-31T20:34:24.065Z,1.92
2022-12-31T20:36:50.484Z,2.22
2022-12-31T20:39:16.941Z,4.68
2022-12-31T20:41:43.509Z,2.20
2022-12-31T20:44:10.132Z,2.47
2022-12-31T20:46:37.023Z,2.25
2022-12-31T20:49:05.176Z,4.28
2022-12-31T20:51:34.007Z,2.35
2022-12-31T20:54:04.160Z,2.63
2022-12-31T20:56:32.754Z,4.40
2022-12-31T20:59:00.638Z,3.17
2022-12-31T21:01:41.704Z,4.30
2022-12-31T21:04:14.131Z,3.10
2022-12-31T21:06:40.761Z,3.40
2022-12-31T21:09:08.425Z,3.13
2022-12-31T21:11:53.649Z,4.97
2022-12-31T21:14:20.393Z,3.03
2022-12-31T21:16:47.108Z,3.70
2022-12-31T21:19:13.675Z,3.13
2022-12-31T21:21:40.152Z,3.45
2022-12-31T21:24:06.845Z,3.92
2022-12-31T21:26:34.335Z,4.13
2022-12-31T21:29:00.796Z,3.28
2022-12-31T21:31:27.571Z,2.90
2022-12-31T21:33:54.183Z,3.88
2022-12-31T21:36:20.676Z,2.90
2022-12-31T21:38:47.225Z,2.50
2022-12-31T21:41:35.063Z,3.15
2022-12-31T21:44:01.998Z,2.63
2022-12-31T21:46:28.919Z,3.33
2022-12-31T21:49:00.019Z,2.70
2022-12-31T21:51:27.550Z,3.20
2022-12-31T21:53:54.018Z,3.13
2022-12-31T21:56:21.516Z,3.05
2022-12-31T21:59:12.339Z,3.75
2022-12-31T22:01:57.340Z,3.85
2022-12-31T22:05:00.346Z,3.63
2022-12-31T22:07:10.291Z,2.80
2022-12-31T22:09:36.706Z,5.10
2022-12-31T22:12:03.296Z,3.90
2022-12-31T22:14:29.767Z,3.30
2022-12-31T22:16:56.210Z,3.30
2022-12-31T22:19:22.761Z,4.07
2022-12-31T22:21:49.221Z,2.67
2022-12-31T22:24:15.700Z,2.35
2022-12-31T22:26:46.533Z,2.15
2022-12-31T22:29:13.351Z,1.70
2022-12-31T22:31:39.868Z,1.50
2022-12-31T22:34:06.371Z,1.70
2022-12-31T22:36:32.916Z,2.20
2022-12-31T22:38:59.691Z,1.90
2022-12-31T22:41:27.215Z,1.55
2022-12-31T22:44:02.588Z,1.73
2022-12-31T22:46:30.602Z,2.20
2022-12-31T22:48:58.917Z,2.10
2022-12-31T22:51:29.182Z,1.25
2022-12-31T22:54:12.428Z,2.15
2022-12-31T22:56:38.944Z,1.58
2022-12-31T22:59:05.634Z,1.23
2022-12-31T23:01:32.146Z,1.20
2022-12-31T23:03:58.756Z,1.23
2022-12-31T23:06:25.309Z,5.30
2022-12-31T23:09:10.908Z,6.57
2022-12-31T23:11:39.137Z,25.00
2022-12-31T23:14:26.184Z,9.75
2022-12-31T23:17:31.365Z,5.22
2022-12-31T23:20:15.977Z,8.18
2022-12-31T23:23:00.890Z,25.08
2022-12-31T23:25:27.337Z,9.43
2022-12-31T23:27:53.810Z,5.03
2022-12-31T23:30:20.215Z,3.80
2022-12-31T23:32:46.658Z,2.92
2022-12-31T23:35:13.888Z,14.73
2022-12-31T23:37:40.333Z,8.32
2022-12-31T23:40:07.492Z,8.45
2022-12-31T23:42:33.978Z,6.28
2022-12-31T23:45:00.404Z,3.55
2022-12-31T23:47:26.860Z,2.08
2022-12-31T23:49:53.267Z,1.92
2022-12-31T23:52:20.236Z,1.60
2022-12-31T23:54:46.727Z,1.90
2022-12-31T23:57:13.214Z,2.67
2022-12-31T23:59:39.607Z,1.70
